sensor_id;sensor_type;location;lat;lon;timestamp;P1;durP1;ratioP1;P2;durP2;ratioP2
69005;SDS011;56061;51.748;19.620;2023-03-23T00:02:26;34.70;;;16.50;;
69005;SDS011;56061;51.748;19.620;2023-03-23T00:04:54;33.70;;;17.20;;
69005;SDS011;56061;51.748;19.620;2023-03-23T00:07:23;30.60;;;15.50;;
69005;SDS011;56061;51.748;19.620;2023-03-23T00:09:53;28.80;;;14.50;;
69005;SDS011;56061;51.748;19.620;2023-03-23T00:12:21;30.50;;;14.90;;
69005;SDS011;56061;51.748;19.620;2023-03-23T00:14:55;31.20;;;15.10;;
69005;SDS011;56061;51.748;19.620;2023-03-23T00:17:21;29.70;;;15.40;;
69005;SDS011;56061;51.748;19.620;2023-03-23T00:19:48;28.50;;;14.30;;
69005;SDS011;56061;51.748;19.620;2023-03-23T00:22:15;31.00;;;14.40;;
69005;SDS011;56061;51.748;19.620;2023-03-23T00:24:44;28.00;;;13.70;;
69005;SDS011;56061;51.748;19.620;2023-03-23T00:27:10;31.30;;;13.60;;
69005;SDS011;56061;51.748;19.620;2023-03-23T00:29:40;36.10;;;15.20;;
69005;SDS011;56061;51.748;19.620;2023-03-23T00:32:07;36.60;;;16.80;;
69005;SDS011;56061;51.748;19.620;2023-03-23T00:34:41;38.50;;;16.80;;
69005;SDS011;56061;51.748;19.620;2023-03-23T00:37:10;37.10;;;17.50;;
69005;SDS011;56061;51.748;19.620;2023-03-23T00:39:37;39.00;;;16.70;;
69005;SDS011;56061;51.748;19.620;2023-03-23T00:42:04;41.00;;;20.10;;
69005;SDS011;56061;51.748;19.620;2023-03-23T00:44:31;40.30;;;19.00;;
69005;SDS011;56061;51.748;19.620;2023-03-23T00:47:00;30.40;;;15.70;;
69005;SDS011;56061;51.748;19.620;2023-03-23T00:49:26;32.50;;;17.20;;
69005;SDS011;56061;51.748;19.620;2023-03-23T00:51:56;27.00;;;14.90;;
69005;SDS011;56061;51.748;19.620;2023-03-23T00:54:23;25.20;;;13.90;;
69005;SDS011;56061;51.748;19.620;2023-03-23T00:56:50;28.10;;;14.70;;
69005;SDS011;56061;51.748;19.620;2023-03-23T00:59:17;28.60;;;14.70;;
69005;SDS011;56061;51.748;19.620;2023-03-23T01:01:43;26.50;;;13.70;;
69005;SDS011;56061;51.748;19.620;2023-03-23T01:04:09;24.30;;;12.90;;
69005;SDS011;56061;51.748;19.620;2023-03-23T01:06:39;24.10;;;12.80;;
69005;SDS011;56061;51.748;19.620;2023-03-23T01:09:09;24.60;;;13.50;;
69005;SDS011;56061;51.748;19.620;2023-03-23T01:11:43;21.50;;;12.30;;
69005;SDS011;56061;51.748;19.620;2023-03-23T01:14:10;21.30;;;11.30;;
69005;SDS011;56061;51.748;19.620;2023-03-23T01:16:38;23.70;;;12.60;;
69005;SDS011;56061;51.748;19.620;2023-03-23T01:19:03;24.30;;;12.40;;
69005;SDS011;56061;51.748;19.620;2023-03-23T01:21:29;22.20;;;11.60;;
69005;SDS011;56061;51.748;19.620;2023-03-23T01:23:55;24.00;;;12.10;;
69005;SDS011;56061;51.748;19.620;2023-03-23T01:26:24;23.20;;;11.10;;
69005;SDS011;56061;51.748;19.620;2023-03-23T01:28:51;22.50;;;11.90;;
69005;SDS011;56061;51.748;19.620;2023-03-23T01:31:20;25.00;;;10.90;;
69005;SDS011;56061;51.748;19.620;2023-03-23T01:33:48;25.70;;;12.60;;
69005;SDS011;56061;51.748;19.620;2023-03-23T01:36:22;24.10;;;12.30;;
69005;SDS011;56061;51.748;19.620;2023-03-23T01:38:51;23.50;;;12.20;;
69005;SDS011;56061;51.748;19.620;2023-03-23T01:41:18;23.10;;;11.90;;
69005;SDS011;56061;51.748;19.620;2023-03-23T01:44:05;20.40;;;11.70;;
69005;SDS011;56061;51.748;19.620;2023-03-23T01:46:35;21.90;;;11.50;;
69005;SDS011;56061;51.748;19.620;2023-03-23T01:49:08;22.70;;;12.10;;
69005;SDS011;56061;51.748;19.620;2023-03-23T01:52:00;20.60;;;11.40;;
69005;SDS011;56061;51.748;19.620;2023-03-23T01:54:29;21.70;;;11.90;;
69005;SDS011;56061;51.748;19.620;2023-03-23T01:57:04;23.00;;;11.30;;
69005;SDS011;56061;51.748;19.620;2023-03-23T01:59:33;22.50;;;11.10;;
69005;SDS011;56061;51.748;19.620;2023-03-23T02:02:00;23.60;;;12.20;;
69005;SDS011;56061;51.748;19.620;2023-03-23T02:04:28;20.60;;;11.70;;
69005;SDS011;56061;51.748;19.620;2023-03-23T02:06:56;21.70;;;11.00;;
69005;SDS011;56061;51.748;19.620;2023-03-23T02:09:24;18.40;;;11.70;;
69005;SDS011;56061;51.748;19.620;2023-03-23T02:13:46;21.10;;;11.00;;
69005;SDS011;56061;51.748;19.620;2023-03-23T02:22:00;20.20;;;11.20;;
69005;SDS011;56061;51.748;19.620;2023-03-23T02:27:57;21.50;;;11.30;;
69005;SDS011;56061;51.748;19.620;2023-03-23T02:33:56;20.30;;;10.30;;
69005;SDS011;56061;51.748;19.620;2023-03-23T02:36:28;18.40;;;10.10;;
69005;SDS011;56061;51.748;19.620;2023-03-23T02:39:18;18.10;;;10.70;;
69005;SDS011;56061;51.748;19.620;2023-03-23T02:42:02;23.60;;;11.70;;
69005;SDS011;56061;51.748;19.620;2023-03-23T02:44:32;23.30;;;12.10;;
69005;SDS011;56061;51.748;19.620;2023-03-23T02:47:03;23.40;;;11.60;;
69005;SDS011;56061;51.748;19.620;2023-03-23T02:49:34;21.90;;;11.40;;
69005;SDS011;56061;51.748;19.620;2023-03-23T02:52:06;20.80;;;11.30;;
69005;SDS011;56061;51.748;19.620;2023-03-23T02:54:38;26.80;;;12.10;;
69005;SDS011;56061;51.748;19.620;2023-03-23T02:57:05;23.50;;;11.70;;
69005;SDS011;56061;51.748;19.620;2023-03-23T02:59:31;24.00;;;11.70;;
69005;SDS011;56061;51.748;19.620;2023-03-23T03:02:04;27.50;;;13.30;;
69005;SDS011;56061;51.748;19.620;2023-03-23T03:04:34;32.10;;;13.90;;
69005;SDS011;56061;51.748;19.620;2023-03-23T03:07:17;28.50;;;13.90;;
69005;SDS011;56061;51.748;19.620;2023-03-23T03:10:06;27.70;;;13.20;;
69005;SDS011;56061;51.748;19.620;2023-03-23T03:12:42;26.30;;;12.40;;
69005;SDS011;56061;51.748;19.620;2023-03-23T03:15:37;23.80;;;11.40;;
69005;SDS011;56061;51.748;19.620;2023-03-23T03:18:16;24.60;;;11.20;;
69005;SDS011;56061;51.748;19.620;2023-03-23T03:20:51;26.10;;;12.70;;
69005;SDS011;56061;51.748;19.620;2023-03-23T03:23:22;26.20;;;13.10;;
69005;SDS011;56061;51.748;19.620;2023-03-23T03:25:51;23.30;;;11.90;;
69005;SDS011;56061;51.748;19.620;2023-03-23T03:28:19;23.50;;;12.60;;
69005;SDS011;56061;51.748;19.620;2023-03-23T03:30:53;21.10;;;12.00;;
69005;SDS011;56061;51.748;19.620;2023-03-23T03:33:22;22.40;;;12.00;;
69005;SDS011;56061;51.748;19.620;2023-03-23T03:35:52;25.20;;;12.00;;
69005;SDS011;56061;51.748;19.620;2023-03-23T03:38:20;23.50;;;12.00;;
69005;SDS011;56061;51.748;19.620;2023-03-23T03:40:45;23.50;;;11.30;;
69005;SDS011;56061;51.748;19.620;2023-03-23T03:43:11;21.70;;;11.10;;
69005;SDS011;56061;51.748;19.620;2023-03-23T03:45:36;22.60;;;11.80;;
69005;SDS011;56061;51.748;19.620;2023-03-23T03:48:02;22.00;;;11.20;;
69005;SDS011;56061;51.748;19.620;2023-03-23T03:50:28;23.60;;;12.70;;
69005;SDS011;56061;51.748;19.620;2023-03-23T03:52:53;32.00;;;15.00;;
69005;SDS011;56061;51.748;19.620;2023-03-23T03:55:19;33.70;;;15.50;;
69005;SDS011;56061;51.748;19.620;2023-03-23T03:57:47;31.60;;;15.30;;
69005;SDS011;56061;51.748;19.620;2023-03-23T04:00:13;31.50;;;14.20;;
69005;SDS011;56061;51.748;19.620;2023-03-23T04:02:48;30.10;;;14.30;;
69005;SDS011;56061;51.748;19.620;2023-03-23T04:05:20;29.00;;;13.10;;
69005;SDS011;56061;51.748;19.620;2023-03-23T04:07:47;25.50;;;12.00;;
69005;SDS011;56061;51.748;19.620;2023-03-23T04:10:17;20.70;;;11.10;;
69005;SDS011;56061;51.748;19.620;2023-03-23T04:12:49;23.80;;;11.70;;
69005;SDS011;56061;51.748;19.620;2023-03-23T04:15:15;26.30;;;11.90;;
69005;SDS011;56061;51.748;19.620;2023-03-23T04:17:41;23.20;;;11.80;;
69005;SDS011;56061;51.748;19.620;2023-03-23T04:20:08;22.20;;;11.70;;
69005;SDS011;56061;51.748;19.620;2023-03-23T04:22:40;19.80;;;10.50;;
69005;SDS011;56061;51.748;19.620;2023-03-23T04:25:10;19.20;;;9.50;;
69005;SDS011;56061;51.748;19.620;2023-03-23T04:27:38;18.90;;;9.70;;
69005;SDS011;56061;51.748;19.620;2023-03-23T04:30:09;16.80;;;9.70;;
69005;SDS011;56061;51.748;19.620;2023-03-23T04:32:37;21.30;;;10.50;;
69005;SDS011;56061;51.748;19.620;2023-03-23T04:35:06;20.10;;;10.70;;
69005;SDS011;56061;51.748;19.620;2023-03-23T04:37:32;21.50;;;10.10;;
69005;SDS011;56061;51.748;19.620;2023-03-23T04:39:59;17.80;;;9.90;;
69005;SDS011;56061;51.748;19.620;2023-03-23T04:42:30;18.70;;;10.20;;
69005;SDS011;56061;51.748;19.620;2023-03-23T04:44:57;18.00;;;8.60;;
69005;SDS011;56061;51.748;19.620;2023-03-23T04:47:24;16.90;;;8.50;;
69005;SDS011;56061;51.748;19.620;2023-03-23T04:49:55;15.20;;;8.00;;
69005;SDS011;56061;51.748;19.620;2023-03-23T04:52:24;16.80;;;8.40;;
69005;SDS011;56061;51.748;19.620;2023-03-23T04:54:51;15.00;;;7.60;;
69005;SDS011;56061;51.748;19.620;2023-03-23T04:57:17;15.00;;;7.70;;
69005;SDS011;56061;51.748;19.620;2023-03-23T04:59:43;17.30;;;8.30;;
69005;SDS011;56061;51.748;19.620;2023-03-23T05:02:10;16.10;;;8.90;;
69005;SDS011;56061;51.748;19.620;2023-03-23T05:04:36;16.60;;;8.10;;
69005;SDS011;56061;51.748;19.620;2023-03-23T05:07:03;16.50;;;7.70;;
69005;SDS011;56061;51.748;19.620;2023-03-23T05:09:29;18.60;;;8.90;;
69005;SDS011;56061;51.748;19.620;2023-03-23T05:11:55;15.30;;;8.30;;
69005;SDS011;56061;51.748;19.620;2023-03-23T05:14:20;18.00;;;9.10;;
69005;SDS011;56061;51.748;19.620;2023-03-23T05:16:46;20.00;;;9.60;;
69005;SDS011;56061;51.748;19.620;2023-03-23T05:19:14;18.50;;;8.80;;
69005;SDS011;56061;51.748;19.620;2023-03-23T05:21:40;15.90;;;8.30;;
69005;SDS011;56061;51.748;19.620;2023-03-23T05:24:05;17.30;;;9.00;;
69005;SDS011;56061;51.748;19.620;2023-03-23T05:26:31;15.40;;;8.50;;
69005;SDS011;56061;51.748;19.620;2023-03-23T05:28:57;14.50;;;7.30;;
69005;SDS011;56061;51.748;19.620;2023-03-23T05:31:24;15.20;;;7.30;;
69005;SDS011;56061;51.748;19.620;2023-03-23T05:33:59;17.80;;;8.10;;
69005;SDS011;56061;51.748;19.620;2023-03-23T05:36:24;20.90;;;9.40;;
69005;SDS011;56061;51.748;19.620;2023-03-23T05:38:53;19.40;;;9.80;;
69005;SDS011;56061;51.748;19.620;2023-03-23T05:41:18;15.60;;;8.80;;
69005;SDS011;56061;51.748;19.620;2023-03-23T05:43:44;21.20;;;8.40;;
69005;SDS011;56061;51.748;19.620;2023-03-23T05:46:15;16.80;;;8.70;;
69005;SDS011;56061;51.748;19.620;2023-03-23T05:48:41;16.30;;;8.60;;
69005;SDS011;56061;51.748;19.620;2023-03-23T05:51:07;19.20;;;9.70;;
69005;SDS011;56061;51.748;19.620;2023-03-23T05:53:33;14.60;;;8.70;;
69005;SDS011;56061;51.748;19.620;2023-03-23T05:56:01;13.70;;;8.00;;
69005;SDS011;56061;51.748;19.620;2023-03-23T05:58:32;14.00;;;8.10;;
69005;SDS011;56061;51.748;19.620;2023-03-23T06:01:00;17.80;;;9.90;;
69005;SDS011;56061;51.748;19.620;2023-03-23T06:03:26;21.60;;;13.00;;
69005;SDS011;56061;51.748;19.620;2023-03-23T06:05:51;16.90;;;11.00;;
69005;SDS011;56061;51.748;19.620;2023-03-23T06:08:17;16.50;;;9.80;;
69005;SDS011;56061;51.748;19.620;2023-03-23T06:10:42;16.70;;;9.50;;
69005;SDS011;56061;51.748;19.620;2023-03-23T06:13:21;19.40;;;11.10;;
69005;SDS011;56061;51.748;19.620;2023-03-23T06:15:46;27.90;;;16.20;;
69005;SDS011;56061;51.748;19.620;2023-03-23T06:18:13;32.20;;;16.20;;
69005;SDS011;56061;51.748;19.620;2023-03-23T06:20:39;24.00;;;13.60;;
69005;SDS011;56061;51.748;19.620;2023-03-23T06:23:06;14.20;;;10.10;;
69005;SDS011;56061;51.748;19.620;2023-03-23T06:25:42;17.80;;;11.00;;
69005;SDS011;56061;51.748;19.620;2023-03-23T06:28:10;14.80;;;9.40;;
69005;SDS011;56061;51.748;19.620;2023-03-23T06:30:36;24.40;;;13.40;;
69005;SDS011;56061;51.748;19.620;2023-03-23T06:33:02;21.40;;;11.30;;
69005;SDS011;56061;51.748;19.620;2023-03-23T06:35:31;19.20;;;9.50;;
69005;SDS011;56061;51.748;19.620;2023-03-23T06:38:06;18.70;;;10.60;;
69005;SDS011;56061;51.748;19.620;2023-03-23T06:40:32;16.60;;;9.10;;
69005;SDS011;56061;51.748;19.620;2023-03-23T06:42:57;19.20;;;10.00;;
69005;SDS011;56061;51.748;19.620;2023-03-23T06:45:26;18.00;;;9.10;;
69005;SDS011;56061;51.748;19.620;2023-03-23T06:47:51;19.70;;;10.30;;
69005;SDS011;56061;51.748;19.620;2023-03-23T06:50:37;16.50;;;9.80;;
69005;SDS011;56061;51.748;19.620;2023-03-23T06:53:03;17.20;;;11.00;;
69005;SDS011;56061;51.748;19.620;2023-03-23T06:55:28;18.40;;;11.00;;
69005;SDS011;56061;51.748;19.620;2023-03-23T06:57:54;18.50;;;10.90;;
69005;SDS011;56061;51.748;19.620;2023-03-23T07:00:19;16.20;;;11.30;;
69005;SDS011;56061;51.748;19.620;2023-03-23T07:02:54;15.30;;;9.80;;
69005;SDS011;56061;51.748;19.620;2023-03-23T07:05:20;15.50;;;9.30;;
69005;SDS011;56061;51.748;19.620;2023-03-23T07:07:46;15.70;;;9.40;;
69005;SDS011;56061;51.748;19.620;2023-03-23T07:10:11;17.70;;;10.90;;
69005;SDS011;56061;51.748;19.620;2023-03-23T07:12:37;15.70;;;8.60;;
69005;SDS011;56061;51.748;19.620;2023-03-23T07:15:12;15.40;;;8.40;;
69005;SDS011;56061;51.748;19.620;2023-03-23T07:17:41;17.90;;;9.80;;
69005;SDS011;56061;51.748;19.620;2023-03-23T07:20:07;18.30;;;10.00;;
69005;SDS011;56061;51.748;19.620;2023-03-23T07:22:33;51.90;;;22.00;;
69005;SDS011;56061;51.748;19.620;2023-03-23T07:24:59;65.70;;;26.50;;
69005;SDS011;56061;51.748;19.620;2023-03-23T07:27:25;36.10;;;18.10;;
69005;SDS011;56061;51.748;19.620;2023-03-23T07:29:59;141.70;;;67.40;;
69005;SDS011;56061;51.748;19.620;2023-03-23T07:32:25;60.40;;;33.30;;
69005;SDS011;56061;51.748;19.620;2023-03-23T07:34:50;27.40;;;15.00;;
69005;SDS011;56061;51.748;19.620;2023-03-23T07:37:16;41.50;;;26.00;;
69005;SDS011;56061;51.748;19.620;2023-03-23T07:39:42;30.00;;;19.20;;
69005;SDS011;56061;51.748;19.620;2023-03-23T07:42:18;17.30;;;11.10;;
69005;SDS011;56061;51.748;19.620;2023-03-23T07:44:44;14.90;;;9.90;;
69005;SDS011;56061;51.748;19.620;2023-03-23T07:47:10;12.30;;;7.70;;
69005;SDS011;56061;51.748;19.620;2023-03-23T07:49:36;12.70;;;7.70;;
69005;SDS011;56061;51.748;19.620;2023-03-23T07:52:02;15.60;;;7.70;;
69005;SDS011;56061;51.748;19.620;2023-03-23T07:54:28;12.70;;;6.70;;
69005;SDS011;56061;51.748;19.620;2023-03-23T07:57:09;15.30;;;7.60;;
69005;SDS011;56061;51.748;19.620;2023-03-23T07:59:35;16.20;;;8.90;;
69005;SDS011;56061;51.748;19.620;2023-03-23T08:02:01;12.80;;;6.70;;
69005;SDS011;56061;51.748;19.620;2023-03-23T08:04:26;17.50;;;7.40;;
69005;SDS011;56061;51.748;19.620;2023-03-23T08:06:55;14.20;;;7.20;;
69005;SDS011;56061;51.748;19.620;2023-03-23T08:09:24;17.10;;;7.80;;
69005;SDS011;56061;51.748;19.620;2023-03-23T08:11:49;18.00;;;7.40;;
69005;SDS011;56061;51.748;19.620;2023-03-23T08:14:15;14.80;;;6.80;;
69005;SDS011;56061;51.748;19.620;2023-03-23T08:16:40;11.30;;;5.70;;
69005;SDS011;56061;51.748;19.620;2023-03-23T08:19:05;12.10;;;6.00;;
69005;SDS011;56061;51.748;19.620;2023-03-23T08:21:37;12.30;;;6.00;;
69005;SDS011;56061;51.748;19.620;2023-03-23T08:24:03;11.50;;;5.70;;
69005;SDS011;56061;51.748;19.620;2023-03-23T08:26:30;13.00;;;5.80;;
69005;SDS011;56061;51.748;19.620;2023-03-23T08:28:55;10.40;;;5.10;;
69005;SDS011;56061;51.748;19.620;2023-03-23T08:31:22;10.80;;;5.10;;
69005;SDS011;56061;51.748;19.620;2023-03-23T08:33:49;9.70;;;4.50;;
69005;SDS011;56061;51.748;19.620;2023-03-23T08:36:24;8.60;;;4.80;;
69005;SDS011;56061;51.748;19.620;2023-03-23T08:38:49;10.10;;;5.50;;
69005;SDS011;56061;51.748;19.620;2023-03-23T08:41:17;10.50;;;4.70;;
69005;SDS011;56061;51.748;19.620;2023-03-23T08:43:42;7.90;;;4.50;;
69005;SDS011;56061;51.748;19.620;2023-03-23T08:46:09;8.20;;;4.10;;
69005;SDS011;56061;51.748;19.620;2023-03-23T08:49:08;9.00;;;4.70;;
69005;SDS011;56061;51.748;19.620;2023-03-23T08:51:27;7.50;;;4.00;;
69005;SDS011;56061;51.748;19.620;2023-03-23T08:53:52;8.60;;;4.10;;
69005;SDS011;56061;51.748;19.620;2023-03-23T08:56:19;10.00;;;4.30;;
69005;SDS011;56061;51.748;19.620;2023-03-23T08:59:06;9.50;;;4.80;;
69005;SDS011;56061;51.748;19.620;2023-03-23T09:01:32;9.80;;;4.30;;
69005;SDS011;56061;51.748;19.620;2023-03-23T09:03:58;8.80;;;4.20;;
69005;SDS011;56061;51.748;19.620;2023-03-23T09:06:25;8.20;;;4.90;;
69005;SDS011;56061;51.748;19.620;2023-03-23T09:09:04;7.20;;;3.80;;
69005;SDS011;56061;51.748;19.620;2023-03-23T09:11:35;6.60;;;2.90;;
69005;SDS011;56061;51.748;19.620;2023-03-23T09:14:06;7.60;;;3.90;;
69005;SDS011;56061;51.748;19.620;2023-03-23T09:16:32;7.30;;;3.60;;
69005;SDS011;56061;51.748;19.620;2023-03-23T09:19:09;8.20;;;3.60;;
69005;SDS011;56061;51.748;19.620;2023-03-23T09:21:34;6.10;;;3.00;;
69005;SDS011;56061;51.748;19.620;2023-03-23T09:24:01;7.70;;;2.80;;
69005;SDS011;56061;51.748;19.620;2023-03-23T09:26:27;5.70;;;2.40;;
69005;SDS011;56061;51.748;19.620;2023-03-23T09:28:53;6.10;;;2.60;;
69005;SDS011;56061;51.748;19.620;2023-03-23T09:31:19;7.40;;;2.40;;
69005;SDS011;56061;51.748;19.620;2023-03-23T16:23:50;7.80;;;3.20;;
69005;SDS011;56061;51.748;19.620;2023-03-23T16:26:17;7.00;;;3.30;;
69005;SDS011;56061;51.748;19.620;2023-03-23T16:28:44;8.70;;;3.50;;
69005;SDS011;56061;51.748;19.620;2023-03-23T16:31:11;12.30;;;4.00;;
69005;SDS011;56061;51.748;19.620;2023-03-23T16:33:37;27.80;;;12.40;;
69005;SDS011;56061;51.748;19.620;2023-03-23T16:36:05;13.30;;;6.80;;
69005;SDS011;56061;51.748;19.620;2023-03-23T16:38:32;10.10;;;4.20;;
69005;SDS011;56061;51.748;19.620;2023-03-23T16:41:15;9.50;;;4.70;;
69005;SDS011;56061;51.748;19.620;2023-03-23T16:43:42;17.10;;;11.90;;
69005;SDS011;56061;51.748;19.620;2023-03-23T16:46:10;8.20;;;5.00;;
69005;SDS011;56061;51.748;19.620;2023-03-23T16:48:38;11.90;;;7.60;;
69005;SDS011;56061;51.748;19.620;2023-03-23T16:51:05;10.50;;;5.50;;
69005;SDS011;56061;51.748;19.620;2023-03-23T16:53:32;10.50;;;6.70;;
69005;SDS011;56061;51.748;19.620;2023-03-23T16:55:58;10.10;;;5.50;;
69005;SDS011;56061;51.748;19.620;2023-03-23T16:58:25;12.40;;;6.00;;
69005;SDS011;56061;51.748;19.620;2023-03-23T17:00:51;11.70;;;5.60;;
69005;SDS011;56061;51.748;19.620;2023-03-23T17:03:19;15.20;;;8.20;;
69005;SDS011;56061;51.748;19.620;2023-03-23T17:05:48;20.90;;;10.70;;
69005;SDS011;56061;51.748;19.620;2023-03-23T17:08:17;33.00;;;16.60;;
69005;SDS011;56061;51.748;19.620;2023-03-23T17:10:44;28.10;;;16.80;;
69005;SDS011;56061;51.748;19.620;2023-03-23T17:13:11;32.30;;;16.60;;
69005;SDS011;56061;51.748;19.620;2023-03-23T17:15:40;30.10;;;15.60;;
69005;SDS011;56061;51.748;19.620;2023-03-23T17:18:12;29.50;;;14.50;;
69005;SDS011;56061;51.748;19.620;2023-03-23T17:20:39;48.10;;;22.50;;
69005;SDS011;56061;51.748;19.620;2023-03-23T17:23:06;27.20;;;13.60;;
69005;SDS011;56061;51.748;19.620;2023-03-23T17:25:32;20.20;;;14.00;;
69005;SDS011;56061;51.748;19.620;2023-03-23T17:27:59;49.20;;;24.70;;
69005;SDS011;56061;51.748;19.620;2023-03-23T17:30:31;64.00;;;33.40;;
69005;SDS011;56061;51.748;19.620;2023-03-23T17:32:58;72.60;;;39.10;;
69005;SDS011;56061;51.748;19.620;2023-03-23T17:35:25;52.60;;;23.90;;
69005;SDS011;56061;51.748;19.620;2023-03-23T17:37:52;140.40;;;41.40;;
69005;SDS011;56061;51.748;19.620;2023-03-23T17:40:18;141.70;;;41.60;;
69005;SDS011;56061;51.748;19.620;2023-03-23T17:42:45;144.20;;;41.90;;
69005;SDS011;56061;51.748;19.620;2023-03-23T17:45:11;186.80;;;53.50;;
69005;SDS011;56061;51.748;19.620;2023-03-23T17:47:38;155.20;;;45.30;;
69005;SDS011;56061;51.748;19.620;2023-03-23T17:50:05;155.60;;;44.50;;
69005;SDS011;56061;51.748;19.620;2023-03-23T17:52:38;102.70;;;35.00;;
69005;SDS011;56061;51.748;19.620;2023-03-23T17:55:05;110.30;;;43.50;;
69005;SDS011;56061;51.748;19.620;2023-03-23T17:57:32;112.60;;;41.90;;
69005;SDS011;56061;51.748;19.620;2023-03-23T18:00:00;92.80;;;36.40;;
69005;SDS011;56061;51.748;19.620;2023-03-23T18:02:27;67.50;;;29.20;;
69005;SDS011;56061;51.748;19.620;2023-03-23T18:04:56;49.80;;;25.60;;
69005;SDS011;56061;51.748;19.620;2023-03-23T18:07:24;40.20;;;21.20;;
69005;SDS011;56061;51.748;19.620;2023-03-23T18:09:51;39.70;;;21.00;;
69005;SDS011;56061;51.748;19.620;2023-03-23T18:12:18;35.80;;;20.90;;
69005;SDS011;56061;51.748;19.620;2023-03-23T18:14:44;54.90;;;29.00;;
69005;SDS011;56061;51.748;19.620;2023-03-23T18:17:11;76.30;;;36.10;;
69005;SDS011;56061;51.748;19.620;2023-03-23T18:19:37;68.50;;;37.60;;
69005;SDS011;56061;51.748;19.620;2023-03-23T18:22:04;54.90;;;31.70;;
69005;SDS011;56061;51.748;19.620;2023-03-23T18:24:30;68.20;;;37.60;;
69005;SDS011;56061;51.748;19.620;2023-03-23T18:26:57;57.10;;;30.80;;
69005;SDS011;56061;51.748;19.620;2023-03-23T18:29:25;55.90;;;31.60;;
69005;SDS011;56061;51.748;19.620;2023-03-23T18:31:52;40.40;;;23.10;;
69005;SDS011;56061;51.748;19.620;2023-03-23T18:34:18;23.70;;;13.90;;
69005;SDS011;56061;51.748;19.620;2023-03-23T18:36:45;41.90;;;21.40;;
69005;SDS011;56061;51.748;19.620;2023-03-23T18:39:11;78.50;;;47.00;;
69005;SDS011;56061;51.748;19.620;2023-03-23T18:41:38;102.20;;;63.70;;
69005;SDS011;56061;51.748;19.620;2023-03-23T18:44:04;131.70;;;76.20;;
69005;SDS011;56061;51.748;19.620;2023-03-23T18:46:31;221.50;;;125.70;;
69005;SDS011;56061;51.748;19.620;2023-03-23T18:48:58;216.80;;;115.80;;
69005;SDS011;56061;51.748;19.620;2023-03-23T18:51:25;202.10;;;98.30;;
69005;SDS011;56061;51.748;19.620;2023-03-23T18:53:51;203.10;;;98.20;;
69005;SDS011;56061;51.748;19.620;2023-03-23T18:56:18;177.60;;;86.80;;
69005;SDS011;56061;51.748;19.620;2023-03-23T18:58:45;111.80;;;52.90;;
69005;SDS011;56061;51.748;19.620;2023-03-23T19:01:15;74.50;;;33.80;;
69005;SDS011;56061;51.748;19.620;2023-03-23T19:03:43;78.90;;;35.80;;
69005;SDS011;56061;51.748;19.620;2023-03-23T19:06:17;113.00;;;43.50;;
69005;SDS011;56061;51.748;19.620;2023-03-23T19:08:47;80.60;;;34.10;;
69005;SDS011;56061;51.748;19.620;2023-03-23T19:11:15;56.80;;;24.90;;
69005;SDS011;56061;51.748;19.620;2023-03-23T19:13:43;62.10;;;27.40;;
69005;SDS011;56061;51.748;19.620;2023-03-23T19:16:27;46.00;;;19.50;;
69005;SDS011;56061;51.748;19.620;2023-03-23T19:18:56;40.40;;;16.40;;
69005;SDS011;56061;51.748;19.620;2023-03-23T19:21:22;30.50;;;13.20;;
69005;SDS011;56061;51.748;19.620;2023-03-23T19:23:52;44.30;;;19.90;;
69005;SDS011;56061;51.748;19.620;2023-03-23T19:26:28;24.50;;;11.00;;
69005;SDS011;56061;51.748;19.620;2023-03-23T19:29:08;20.50;;;9.30;;
69005;SDS011;56061;51.748;19.620;2023-03-23T19:31:54;15.70;;;6.90;;
69005;SDS011;56061;51.748;19.620;2023-03-23T19:34:21;18.00;;;8.60;;
69005;SDS011;56061;51.748;19.620;2023-03-23T19:36:50;23.30;;;9.50;;
69005;SDS011;56061;51.748;19.620;2023-03-23T19:39:29;19.60;;;7.50;;
69005;SDS011;56061;51.748;19.620;2023-03-23T19:41:56;16.30;;;7.90;;
69005;SDS011;56061;51.748;19.620;2023-03-23T19:44:23;21.20;;;9.20;;
69005;SDS011;56061;51.748;19.620;2023-03-23T19:46:50;36.20;;;18.60;;
69005;SDS011;56061;51.748;19.620;2023-03-23T19:49:17;55.30;;;25.60;;
69005;SDS011;56061;51.748;19.620;2023-03-23T19:51:43;58.60;;;25.20;;
69005;SDS011;56061;51.748;19.620;2023-03-23T19:54:10;27.40;;;12.20;;
69005;SDS011;56061;51.748;19.620;2023-03-23T19:56:38;18.40;;;7.40;;
69005;SDS011;56061;51.748;19.620;2023-03-23T19:59:05;13.60;;;6.20;;
69005;SDS011;56061;51.748;19.620;2023-03-23T20:01:34;22.50;;;10.70;;
69005;SDS011;56061;51.748;19.620;2023-03-23T20:04:01;40.20;;;18.70;;
69005;SDS011;56061;51.748;19.620;2023-03-23T20:06:30;27.10;;;13.20;;
69005;SDS011;56061;51.748;19.620;2023-03-23T20:08:57;23.50;;;7.80;;
69005;SDS011;56061;51.748;19.620;2023-03-23T20:11:26;13.50;;;5.30;;
69005;SDS011;56061;51.748;19.620;2023-03-23T20:13:53;12.60;;;5.50;;
69005;SDS011;56061;51.748;19.620;2023-03-23T20:16:20;12.20;;;5.40;;
69005;SDS011;56061;51.748;19.620;2023-03-23T20:18:47;12.80;;;5.10;;
69005;SDS011;56061;51.748;19.620;2023-03-23T20:21:18;11.60;;;5.10;;
69005;SDS011;56061;51.748;19.620;2023-03-23T20:23:51;10.00;;;4.80;;
69005;SDS011;56061;51.748;19.620;2023-03-23T20:26:26;11.90;;;5.00;;
69005;SDS011;56061;51.748;19.620;2023-03-23T20:28:55;9.60;;;4.60;;
69005;SDS011;56061;51.748;19.620;2023-03-23T20:31:27;10.10;;;4.60;;
69005;SDS011;56061;51.748;19.620;2023-03-23T20:34:12;8.60;;;3.70;;
69005;SDS011;56061;51.748;19.620;2023-03-23T20:36:43;10.60;;;4.60;;
69005;SDS011;56061;51.748;19.620;2023-03-23T20:39:14;18.70;;;7.90;;
69005;SDS011;56061;51.748;19.620;2023-03-23T20:41:47;31.10;;;14.90;;
69005;SDS011;56061;51.748;19.620;2023-03-23T20:44:17;20.00;;;9.60;;
69005;SDS011;56061;51.748;19.620;2023-03-23T20:46:46;19.90;;;7.60;;
69005;SDS011;56061;51.748;19.620;2023-03-23T20:49:16;14.90;;;5.30;;
69005;SDS011;56061;51.748;19.620;2023-03-23T20:51:43;12.30;;;4.90;;
69005;SDS011;56061;51.748;19.620;2023-03-23T20:54:10;8.60;;;3.90;;
69005;SDS011;56061;51.748;19.620;2023-03-23T20:56:42;10.60;;;5.60;;
69005;SDS011;56061;51.748;19.620;2023-03-23T20:59:10;11.70;;;5.70;;
69005;SDS011;56061;51.748;19.620;2023-03-23T21:01:37;11.90;;;5.40;;
69005;SDS011;56061;51.748;19.620;2023-03-23T21:04:07;10.90;;;4.90;;
69005;SDS011;56061;51.748;19.620;2023-03-23T21:06:41;12.60;;;5.30;;
69005;SDS011;56061;51.748;19.620;2023-03-23T21:09:09;11.80;;;5.20;;
69005;SDS011;56061;51.748;19.620;2023-03-23T21:11:36;12.10;;;6.00;;
69005;SDS011;56061;51.748;19.620;2023-03-23T21:14:04;12.90;;;6.60;;
69005;SDS011;56061;51.748;19.620;2023-03-23T21:16:31;12.60;;;6.90;;
69005;SDS011;56061;51.748;19.620;2023-03-23T21:18:57;13.20;;;6.80;;
69005;SDS011;56061;51.748;19.620;2023-03-23T21:21:24;14.00;;;7.30;;
69005;SDS011;56061;51.748;19.620;2023-03-23T21:23:52;14.00;;;6.80;;
69005;SDS011;56061;51.748;19.620;2023-03-23T21:26:25;13.70;;;7.00;;
69005;SDS011;56061;51.748;19.620;2023-03-23T21:28:53;16.20;;;8.00;;